createdAt,value
2022-10-09T00:00:36.243Z,5.15
2022-10-09T00:01:36.291Z,5.12
2022-10-09T00:02:36.325Z,5.11
2022-10-09T00:03:36.218Z,5.07
2022-10-09T00:04:36.208Z,5.07
2022-10-09T00:05:36.291Z,5.09
2022-10-09T00:06:36.176Z,5.09
2022-10-09T00:07:36.173Z,5.11
2022-10-09T00:08:36.183Z,5.11
2022-10-09T00:09:36.151Z,5.07
2022-10-09T00:10:36.140Z,5.07
2022-10-09T00:11:36.131Z,5.09
2022-10-09T00:12:36.151Z,5.06
2022-10-09T00:13:36.157Z,5.06
2022-10-09T00:14:36.092Z,5.07
2022-10-09T00:15:36.087Z,5.06
2022-10-09T00:16:36.163Z,5.04
2022-10-09T00:17:36.580Z,5.04
2022-10-09T00:18:36.093Z,5.03
2022-10-09T00:19:36.059Z,5.01
2022-10-09T00:20:36.053Z,5.00
2022-10-09T00:21:36.027Z,5.00
2022-10-09T00:22:36.033Z,4.98
2022-10-09T00:23:36.008Z,4.97
2022-10-09T00:24:36.042Z,4.97
2022-10-09T00:25:35.986Z,4.98
2022-10-09T00:26:35.985Z,4.96
2022-10-09T00:27:36.102Z,4.96
2022-10-09T00:28:38.688Z,4.94
2022-10-09T00:29:35.944Z,4.93
2022-10-09T00:30:35.980Z,4.89
2022-10-09T00:31:35.925Z,4.89
2022-10-09T00:32:35.930Z,4.91
2022-10-09T00:33:35.906Z,4.93
2022-10-09T00:34:35.915Z,4.93
2022-10-09T00:35:35.891Z,4.93
2022-10-09T00:36:36.234Z,4.93
2022-10-09T00:37:35.860Z,4.89
2022-10-09T00:38:35.883Z,4.89
2022-10-09T00:39:35.837Z,4.89
2022-10-09T00:40:35.861Z,4.86
2022-10-09T00:41:35.819Z,4.85
2022-10-09T00:42:35.825Z,4.85
2022-10-09T00:43:35.803Z,4.83
2022-10-09T00:44:35.784Z,4.79
2022-10-09T00:45:35.782Z,4.79
2022-10-09T00:46:35.966Z,4.78
2022-10-09T00:47:35.756Z,4.79
2022-10-09T00:48:35.759Z,4.77
2022-10-09T00:49:35.739Z,4.79
2022-10-09T00:50:35.738Z,4.77
2022-10-09T00:51:35.730Z,4.75
2022-10-09T00:52:35.762Z,4.71
2022-10-09T00:53:35.721Z,4.71
2022-10-09T00:54:35.718Z,4.71
2022-10-09T00:55:35.693Z,4.69
2022-10-09T00:56:35.670Z,4.69
2022-10-09T00:57:35.675Z,4.69
2022-10-09T00:58:35.810Z,4.67
2022-10-09T00:59:35.630Z,4.69
2022-10-09T01:00:35.640Z,4.67
2022-10-09T01:01:35.644Z,4.66
2022-10-09T01:02:35.702Z,4.63
2022-10-09T01:03:35.602Z,4.64
2022-10-09T01:04:35.608Z,4.61
2022-10-09T01:05:35.579Z,4.61
2022-10-09T01:06:35.563Z,4.60
2022-10-09T01:07:35.560Z,4.59
2022-10-09T01:08:35.536Z,4.59
2022-10-09T01:09:35.519Z,4.59
2022-10-09T01:10:35.545Z,4.57
2022-10-09T01:11:35.514Z,4.57
2022-10-09T01:12:35.504Z,4.56
2022-10-09T01:13:35.479Z,4.54
2022-10-09T01:14:35.486Z,4.54
2022-10-09T01:15:35.496Z,4.56
2022-10-09T01:16:35.470Z,4.56
2022-10-09T01:17:35.446Z,4.57
2022-10-09T01:18:35.448Z,4.59
2022-10-09T01:19:35.431Z,4.57
2022-10-09T01:20:35.419Z,4.54
2022-10-09T01:21:35.632Z,4.54
2022-10-09T01:22:35.458Z,4.51
2022-10-09T01:23:35.390Z,4.49
2022-10-09T01:24:35.374Z,4.48
2022-10-09T01:25:35.352Z,4.46
2022-10-09T01:26:35.362Z,4.48
2022-10-09T01:27:35.385Z,4.46
2022-10-09T01:28:35.410Z,4.45
2022-10-09T01:29:35.308Z,4.46
2022-10-09T01:30:35.402Z,4.49
2022-10-09T01:31:35.327Z,4.49
2022-10-09T01:32:35.312Z,4.46
2022-10-09T01:33:35.289Z,4.45
2022-10-09T01:34:35.271Z,4.46
2022-10-09T01:35:35.264Z,4.46
2022-10-09T01:36:35.249Z,4.45
2022-10-09T01:37:35.246Z,4.46
2022-10-09T01:38:35.233Z,4.46
2022-10-09T01:39:35.213Z,4.46
2022-10-09T01:40:35.209Z,4.49
2022-10-09T01:41:35.187Z,4.48
2022-10-09T01:42:35.182Z,4.46
2022-10-09T01:43:35.187Z,4.46
2022-10-09T01:44:35.161Z,4.46
2022-10-09T01:45:35.271Z,4.43
2022-10-09T01:46:35.250Z,4.42
2022-10-09T01:47:35.171Z,4.42
2022-10-09T01:48:35.119Z,4.42
2022-10-09T01:49:35.112Z,4.41
2022-10-09T01:50:35.102Z,4.42
2022-10-09T01:51:35.103Z,4.42
2022-10-09T01:52:38.099Z,4.42
2022-10-09T01:53:35.081Z,4.42
2022-10-09T01:54:35.076Z,4.42
2022-10-09T01:55:35.047Z,4.43
2022-10-09T01:56:35.048Z,4.41
2022-10-09T01:57:35.039Z,4.41
2022-10-09T01:58:35.054Z,4.39
2022-10-09T01:59:35.011Z,4.39
2022-10-09T02:00:34.993Z,4.39
2022-10-09T02:01:35.059Z,4.39
2022-10-09T02:02:35.050Z,4.38
2022-10-09T02:03:34.977Z,4.38
2022-10-09T02:04:34.961Z,4.39
2022-10-09T02:05:34.952Z,4.38
2022-10-09T02:06:34.938Z,4.36
2022-10-09T02:07:34.932Z,4.36
2022-10-09T02:08:34.918Z,4.35
2022-10-09T02:09:34.894Z,4.34
2022-10-09T02:10:34.908Z,4.31
2022-10-09T02:11:34.871Z,4.31
2022-10-09T02:12:34.885Z,4.28
2022-10-09T02:13:34.855Z,4.28
2022-10-09T02:14:34.871Z,4.27
2022-10-09T02:15:34.932Z,4.26
2022-10-09T02:16:37.170Z,4.26
2022-10-09T02:17:34.807Z,4.26
2022-10-09T02:18:34.832Z,4.24
2022-10-09T02:19:34.793Z,4.23
2022-10-09T02:20:34.796Z,4.23
2022-10-09T02:21:34.777Z,4.23
2022-10-09T02:22:34.771Z,4.23
2022-10-09T02:23:34.784Z,4.24
2022-10-09T02:24:34.744Z,4.23
2022-10-09T02:25:34.730Z,4.21
2022-10-09T02:26:34.733Z,4.20
2022-10-09T02:27:34.707Z,4.18
2022-10-09T02:28:34.774Z,4.18
2022-10-09T02:29:34.676Z,4.18
2022-10-09T02:30:34.692Z,4.18
2022-10-09T02:31:34.712Z,4.17
2022-10-09T02:32:34.667Z,4.13
2022-10-09T02:33:34.664Z,4.12
2022-10-09T02:34:34.663Z,4.10
2022-10-09T02:35:34.628Z,4.09
2022-10-09T02:36:34.619Z,4.08
2022-10-09T02:37:34.605Z,4.08
2022-10-09T02:38:34.605Z,4.09
2022-10-09T02:39:34.607Z,4.09
2022-10-09T02:40:34.576Z,4.10
2022-10-09T02:41:34.560Z,4.09
2022-10-09T02:42:34.559Z,4.09
2022-10-09T02:43:34.551Z,4.09
2022-10-09T02:44:34.534Z,4.09
2022-10-09T02:45:34.534Z,4.08
2022-10-09T02:46:34.641Z,4.08
2022-10-09T02:47:34.505Z,4.08
2022-10-09T02:48:34.504Z,4.08
2022-10-09T02:49:34.509Z,4.08
2022-10-09T02:50:34.471Z,4.09
2022-10-09T02:51:34.548Z,4.06
2022-10-09T02:52:34.461Z,4.08
2022-10-09T02:53:34.438Z,4.06
2022-10-09T02:54:34.456Z,4.05
2022-10-09T02:55:34.410Z,4.06
2022-10-09T02:56:38.562Z,4.06
2022-10-09T02:57:34.401Z,4.05
2022-10-09T02:58:34.389Z,4.06
2022-10-09T02:59:34.460Z,4.06
2022-10-09T03:00:34.376Z,4.05
2022-10-09T03:01:34.519Z,4.03
2022-10-09T03:02:34.541Z,4.02
2022-10-09T03:03:34.332Z,4.03
2022-10-09T03:04:34.333Z,4.00
2022-10-09T03:05:34.325Z,4.02
2022-10-09T03:06:34.316Z,4.00
2022-10-09T03:07:34.292Z,4.02
2022-10-09T03:08:34.287Z,3.99
2022-10-09T03:09:34.283Z,3.99
2022-10-09T03:10:34.274Z,3.96
2022-10-09T03:11:34.248Z,3.94
2022-10-09T03:12:34.245Z,3.98
2022-10-09T03:13:34.245Z,3.98
2022-10-09T03:14:34.235Z,3.96
2022-10-09T03:15:34.221Z,3.96
2022-10-09T03:16:34.317Z,3.94
2022-10-09T03:17:34.192Z,3.96
2022-10-09T03:18:34.197Z,3.94
2022-10-09T03:19:34.196Z,3.94
2022-10-09T03:20:34.197Z,3.91
2022-10-09T03:21:34.149Z,3.91
2022-10-09T03:22:34.140Z,3.90
2022-10-09T03:23:34.142Z,3.90
2022-10-09T03:24:36.005Z,3.88
2022-10-09T03:25:34.129Z,3.85
2022-10-09T03:26:34.109Z,3.87
2022-10-09T03:27:34.083Z,3.84
2022-10-09T03:28:34.514Z,3.84
2022-10-09T03:29:34.062Z,3.82
2022-10-09T03:30:34.076Z,3.82
2022-10-09T03:31:51.143Z,3.84
2022-10-09T03:32:34.038Z,3.84
2022-10-09T03:33:34.022Z,3.84
2022-10-09T03:34:34.017Z,3.82
2022-10-09T03:35:34.023Z,3.84
2022-10-09T03:36:34.004Z,3.82
2022-10-09T03:37:34.509Z,3.82
2022-10-09T03:38:34.003Z,3.82
2022-10-09T03:39:33.953Z,3.84
2022-10-09T03:40:34.003Z,3.84
2022-10-09T03:41:33.971Z,3.82
2022-10-09T03:42:33.933Z,3.81
2022-10-09T03:43:33.923Z,3.81
2022-10-09T03:44:33.919Z,3.81
2022-10-09T03:45:33.889Z,3.78
2022-10-09T03:46:34.039Z,3.76
2022-10-09T03:47:33.877Z,3.74
2022-10-09T03:48:33.866Z,3.70
2022-10-09T03:49:33.859Z,3.69
2022-10-09T03:50:33.872Z,3.72
2022-10-09T03:51:33.879Z,3.70
2022-10-09T03:52:33.829Z,3.70
2022-10-09T03:53:33.813Z,3.70
2022-10-09T03:54:33.822Z,3.67
2022-10-09T03:55:33.795Z,3.67
2022-10-09T03:56:33.812Z,3.69
2022-10-09T03:57:33.776Z,3.70
2022-10-09T03:58:33.765Z,3.70
2022-10-09T03:59:33.753Z,3.70
2022-10-09T04:00:33.843Z,3.70
2022-10-09T04:01:33.726Z,3.69
2022-10-09T04:02:33.796Z,3.67
2022-10-09T04:03:33.708Z,3.66
2022-10-09T04:04:33.705Z,3.66
2022-10-09T04:05:33.682Z,3.66
2022-10-09T04:06:33.688Z,3.64
2022-10-09T04:07:33.682Z,3.62
2022-10-09T04:08:33.673Z,3.66
2022-10-09T04:09:33.636Z,3.69
2022-10-09T04:10:33.645Z,3.70
2022-10-09T04:11:33.624Z,3.70
2022-10-09T04:12:33.626Z,3.69
2022-10-09T04:13:33.621Z,3.69
2022-10-09T04:14:33.600Z,3.66
2022-10-09T04:15:33.583Z,3.69
2022-10-09T04:16:33.660Z,3.69
2022-10-09T04:17:33.576Z,3.66
2022-10-09T04:18:33.566Z,3.64
2022-10-09T04:19:33.544Z,3.63
2022-10-09T04:20:33.538Z,3.64
2022-10-09T04:21:33.518Z,3.62
2022-10-09T04:22:33.529Z,3.62
2022-10-09T04:23:33.523Z,3.60
2022-10-09T04:24:33.493Z,3.59
2022-10-09T04:25:33.536Z,3.59
2022-10-09T04:26:33.476Z,3.56
2022-10-09T04:27:33.469Z,3.55
2022-10-09T04:28:33.611Z,3.55
2022-10-09T04:29:33.454Z,3.54
2022-10-09T04:30:33.438Z,3.54
2022-10-09T04:31:33.510Z,3.51
2022-10-09T04:32:33.405Z,3.51
2022-10-09T04:33:33.398Z,3.48
2022-10-09T04:34:33.411Z,3.51
2022-10-09T04:35:34.299Z,3.51
2022-10-09T04:36:33.367Z,3.51
2022-10-09T04:37:33.368Z,3.51
2022-10-09T04:38:33.395Z,3.54
2022-10-09T04:39:33.353Z,3.54
2022-10-09T04:40:33.324Z,3.52
2022-10-09T04:41:37.992Z,3.52
2022-10-09T04:42:33.306Z,3.54
2022-10-09T04:43:33.315Z,3.51
2022-10-09T04:44:33.701Z,3.52
2022-10-09T04:45:33.317Z,3.52
2022-10-09T04:46:33.256Z,3.52
2022-10-09T04:47:33.266Z,3.52
2022-10-09T04:48:33.260Z,3.51
2022-10-09T04:49:33.301Z,3.49
2022-10-09T04:50:33.227Z,3.48
2022-10-09T04:51:33.209Z,3.46
2022-10-09T04:52:33.194Z,3.46
2022-10-09T04:53:33.201Z,3.45
2022-10-09T04:54:33.341Z,3.45
2022-10-09T04:55:33.171Z,3.44
2022-10-09T04:56:33.159Z,3.44
2022-10-09T04:57:33.153Z,3.44
2022-10-09T04:58:33.130Z,3.44
2022-10-09T04:59:33.153Z,3.45
2022-10-09T05:00:33.119Z,3.45
2022-10-09T05:01:38.040Z,3.44
2022-10-09T05:02:33.134Z,3.42
2022-10-09T05:03:33.086Z,3.44
2022-10-09T05:04:33.068Z,3.44
2022-10-09T05:05:33.115Z,3.46
2022-10-09T05:06:33.069Z,3.48
2022-10-09T05:07:33.073Z,3.49
2022-10-09T05:08:35.987Z,3.52
2022-10-09T05:09:34.956Z,3.52
2022-10-09T05:10:34.142Z,3.54
2022-10-09T05:11:33.667Z,3.54
2022-10-09T05:12:33.278Z,3.52
2022-10-09T05:13:33.358Z,3.52
2022-10-09T05:14:34.943Z,3.52
2022-10-09T05:15:34.345Z,3.51
2022-10-09T05:17:08.343Z,3.51
2022-10-09T05:17:33.097Z,3.52
2022-10-09T05:18:32.922Z,3.51
2022-10-09T05:19:32.927Z,3.52
2022-10-09T05:20:32.861Z,3.51
2022-10-09T05:21:32.845Z,3.49
2022-10-09T05:22:32.878Z,3.51
2022-10-09T05:23:32.965Z,3.49
2022-10-09T05:24:32.840Z,3.49
2022-10-09T05:25:32.813Z,3.52
2022-10-09T05:26:32.879Z,3.54
2022-10-09T05:27:32.790Z,3.52
2022-10-09T05:28:32.890Z,3.54
2022-10-09T05:29:32.769Z,3.52
2022-10-09T05:30:32.750Z,3.52
2022-10-09T05:31:32.758Z,3.49
2022-10-09T05:32:32.739Z,3.49
2022-10-09T05:33:32.731Z,3.48
2022-10-09T05:34:32.716Z,3.46
2022-10-09T05:35:32.703Z,3.46
2022-10-09T05:36:32.735Z,3.45
2022-10-09T05:37:32.701Z,3.45
2022-10-09T05:38:32.665Z,3.46
2022-10-09T05:39:32.668Z,3.46
2022-10-09T05:40:32.670Z,3.48
2022-10-09T05:41:32.695Z,3.46
2022-10-09T05:42:32.629Z,3.48
2022-10-09T05:43:32.614Z,3.49
2022-10-09T05:44:32.630Z,3.49
2022-10-09T05:45:32.640Z,3.51
2022-10-09T05:46:32.705Z,3.51
2022-10-09T05:47:32.633Z,3.49
2022-10-09T05:48:32.551Z,3.51
2022-10-09T05:49:32.554Z,3.51
2022-10-09T05:50:32.766Z,3.54
2022-10-09T05:51:32.535Z,3.55
2022-10-09T05:52:32.544Z,3.55
2022-10-09T05:53:32.515Z,3.54
2022-10-09T05:54:32.530Z,3.56
2022-10-09T05:55:32.507Z,3.56
2022-10-09T05:56:32.552Z,3.56
2022-10-09T05:57:32.475Z,3.56
2022-10-09T05:58:32.448Z,3.56
2022-10-09T05:59:32.466Z,3.59
2022-10-09T06:00:32.434Z,3.59
2022-10-09T06:01:33.305Z,3.60
2022-10-09T06:02:32.506Z,3.60
2022-10-09T06:03:32.420Z,3.62
2022-10-09T06:04:32.398Z,3.62
2022-10-09T06:05:32.401Z,3.60
2022-10-09T06:06:32.517Z,3.62
2022-10-09T06:07:32.381Z,3.62
2022-10-09T06:08:32.355Z,3.64
2022-10-09T06:09:32.367Z,3.66
2022-10-09T06:10:32.782Z,3.69
2022-10-09T06:11:32.336Z,3.72
2022-10-09T06:12:32.310Z,3.72
2022-10-09T06:13:32.296Z,3.74
2022-10-09T06:14:32.366Z,3.76
2022-10-09T06:15:32.282Z,3.78
2022-10-09T06:16:32.403Z,3.78
2022-10-09T06:17:33.486Z,3.80
2022-10-09T06:18:33.281Z,3.82
2022-10-09T06:19:32.255Z,3.85
2022-10-09T06:20:32.224Z,3.90
2022-10-09T06:21:32.397Z,3.88
2022-10-09T06:22:32.202Z,3.92
2022-10-09T06:23:32.192Z,3.92
2022-10-09T06:24:32.198Z,3.98
2022-10-09T06:25:32.189Z,4.03
2022-10-09T06:26:32.289Z,4.06
2022-10-09T06:27:32.163Z,4.12
2022-10-09T06:28:32.247Z,4.21
2022-10-09T06:29:32.141Z,4.28
2022-10-09T06:30:37.700Z,4.36
2022-10-09T06:31:32.255Z,4.41
2022-10-09T06:32:32.103Z,4.49
2022-10-09T06:33:32.099Z,4.57
2022-10-09T06:34:32.098Z,4.66
2022-10-09T06:35:32.087Z,4.72
2022-10-09T06:36:32.092Z,4.79
2022-10-09T06:37:32.050Z,4.88
2022-10-09T06:38:32.081Z,4.97
2022-10-09T06:39:32.033Z,5.04
2022-10-09T06:40:32.024Z,5.14
2022-10-09T06:41:32.033Z,5.21
2022-10-09T06:42:31.987Z,5.32
2022-10-09T06:43:31.987Z,5.43
2022-10-09T06:44:31.987Z,5.52
2022-10-09T06:45:31.978Z,5.62
2022-10-09T06:46:32.164Z,5.69
2022-10-09T06:47:31.983Z,5.75
2022-10-09T06:48:31.927Z,5.79
2022-10-09T06:49:31.946Z,5.82
2022-10-09T06:50:31.917Z,5.88
2022-10-09T06:51:31.896Z,5.90
2022-10-09T06:52:31.894Z,5.91
2022-10-09T06:53:31.897Z,5.94
2022-10-09T06:54:31.880Z,5.97
2022-10-09T06:55:31.891Z,6.02
2022-10-09T06:56:32.480Z,6.03
2022-10-09T06:57:31.839Z,6.09
2022-10-09T06:58:31.824Z,6.15
2022-10-09T06:59:31.818Z,6.21
2022-10-09T07:00:31.805Z,6.30
2022-10-09T07:01:32.155Z,6.31
2022-10-09T07:02:31.849Z,6.40
2022-10-09T07:03:31.781Z,6.45
2022-10-09T07:04:31.774Z,6.50
2022-10-09T07:05:31.764Z,6.55
2022-10-09T07:06:31.749Z,6.63
2022-10-09T07:07:31.781Z,6.68
2022-10-09T07:08:31.721Z,6.74
2022-10-09T07:09:32.973Z,6.82
2022-10-09T07:10:31.688Z,6.88
2022-10-09T07:11:32.368Z,6.93
2022-10-09T07:12:31.704Z,6.97
2022-10-09T07:13:31.682Z,7.03
2022-10-09T07:14:31.670Z,7.06
2022-10-09T07:15:31.676Z,7.16
2022-10-09T07:16:31.681Z,7.22
2022-10-09T07:17:31.656Z,7.26
2022-10-09T07:18:31.609Z,7.36
2022-10-09T07:19:31.611Z,7.42
2022-10-09T07:20:31.596Z,7.46
2022-10-09T07:21:31.629Z,7.52
2022-10-09T07:22:31.609Z,7.58
2022-10-09T07:23:31.563Z,7.64
2022-10-09T07:24:31.552Z,7.68
2022-10-09T07:25:31.553Z,7.74
2022-10-09T07:26:31.572Z,7.81
2022-10-09T07:27:31.520Z,7.86
2022-10-09T07:28:31.585Z,7.88
2022-10-09T07:29:31.507Z,7.99
2022-10-09T07:30:31.487Z,8.04
2022-10-09T07:31:31.496Z,8.09
2022-10-09T07:32:31.465Z,8.10
2022-10-09T07:33:31.489Z,8.09
2022-10-09T07:34:31.459Z,8.10
2022-10-09T07:35:31.447Z,8.06
2022-10-09T07:36:31.429Z,8.09
2022-10-09T07:37:31.897Z,8.14
2022-10-09T07:38:31.408Z,8.17
2022-10-09T07:39:31.427Z,8.20
2022-10-09T07:40:31.384Z,8.23
2022-10-09T07:41:31.394Z,8.28
2022-10-09T07:42:31.348Z,8.34
2022-10-09T07:43:31.345Z,8.38
2022-10-09T07:44:31.331Z,8.44
2022-10-09T07:45:31.348Z,8.53
2022-10-09T07:46:33.923Z,8.62
2022-10-09T07:47:31.309Z,8.65
2022-10-09T07:48:31.300Z,8.68
2022-10-09T07:49:32.458Z,8.77
2022-10-09T07:50:31.268Z,8.83
2022-10-09T07:51:31.255Z,8.90
2022-10-09T07:52:31.257Z,8.98
2022-10-09T07:53:35.702Z,9.01
2022-10-09T07:54:31.254Z,9.11
2022-10-09T07:55:31.228Z,9.15
2022-10-09T07:56:31.211Z,9.22
2022-10-09T07:57:31.214Z,9.26
2022-10-09T07:58:31.189Z,9.32
2022-10-09T07:59:31.178Z,9.37
2022-10-09T08:00:31.193Z,9.42
2022-10-09T08:01:31.229Z,9.48
2022-10-09T08:02:31.156Z,9.57
2022-10-09T08:03:31.183Z,9.66
2022-10-09T08:04:31.129Z,9.70
2022-10-09T08:05:31.123Z,9.81
2022-10-09T08:06:31.144Z,9.84
2022-10-09T08:07:34.808Z,9.90
2022-10-09T08:08:31.088Z,9.93
2022-10-09T08:09:31.077Z,10.01
2022-10-09T08:10:31.076Z,10.08
2022-10-09T08:11:31.061Z,10.12
2022-10-09T08:12:31.033Z,10.20
2022-10-09T08:13:31.370Z,10.23
2022-10-09T08:14:31.016Z,10.26
2022-10-09T08:15:31.036Z,10.31
2022-10-09T08:16:31.017Z,10.36
2022-10-09T08:17:30.994Z,10.42
2022-10-09T08:18:30.970Z,10.48
2022-10-09T08:19:30.967Z,10.54
2022-10-09T08:20:30.944Z,10.60
2022-10-09T08:21:30.962Z,10.62
2022-10-09T08:22:30.934Z,10.67
2022-10-09T08:23:30.932Z,10.73
2022-10-09T08:24:30.912Z,10.79
2022-10-09T08:25:30.912Z,10.78
2022-10-09T08:26:30.885Z,10.76
2022-10-09T08:27:30.895Z,10.79
2022-10-09T08:28:30.946Z,10.83
2022-10-09T08:29:30.878Z,10.86
2022-10-09T08:30:30.846Z,10.91
2022-10-09T08:31:30.916Z,10.97
2022-10-09T08:32:30.825Z,11.00
2022-10-09T08:33:30.836Z,11.04
2022-10-09T08:34:30.799Z,11.05
2022-10-09T08:35:34.421Z,11.11
2022-10-09T08:36:30.784Z,11.18
2022-10-09T08:37:30.782Z,11.20
2022-10-09T08:38:46.860Z,11.20
2022-10-09T08:39:30.789Z,11.28
2022-10-09T08:40:30.745Z,11.23
2022-10-09T08:41:30.741Z,11.28
2022-10-09T08:42:30.745Z,11.36
2022-10-09T08:43:30.722Z,11.34
2022-10-09T08:44:30.696Z,11.30
2022-10-09T08:45:30.695Z,11.37
2022-10-09T08:46:30.721Z,11.46
2022-10-09T08:47:30.671Z,11.54
2022-10-09T08:48:30.661Z,11.58
2022-10-09T08:49:30.656Z,11.64
2022-10-09T08:50:30.621Z,11.70
2022-10-09T08:51:30.630Z,11.67
2022-10-09T08:52:30.604Z,11.77
2022-10-09T08:53:30.641Z,11.85
2022-10-09T08:54:30.597Z,11.85
2022-10-09T08:55:30.596Z,11.93
2022-10-09T08:56:30.552Z,12.04
2022-10-09T08:57:30.586Z,12.05
2022-10-09T08:58:30.558Z,12.10
2022-10-09T08:59:30.531Z,12.18
2022-10-09T09:00:30.529Z,12.22
2022-10-09T09:01:30.635Z,12.21
2022-10-09T09:02:30.532Z,12.22
2022-10-09T09:03:30.581Z,12.26
2022-10-09T09:04:30.500Z,12.30
2022-10-09T09:05:30.470Z,12.32
2022-10-09T09:06:30.485Z,12.40
2022-10-09T09:07:30.478Z,12.48
2022-10-09T09:08:30.451Z,12.50
2022-10-09T09:09:30.480Z,12.50
2022-10-09T09:10:30.457Z,12.51
2022-10-09T09:11:30.423Z,12.48
2022-10-09T09:12:30.413Z,12.55
2022-10-09T09:13:30.392Z,12.59
2022-10-09T09:14:30.403Z,12.61
2022-10-09T09:15:30.401Z,12.69
2022-10-09T09:16:30.390Z,12.71
2022-10-09T09:17:30.367Z,12.77
2022-10-09T09:18:30.341Z,12.80
2022-10-09T09:19:30.347Z,12.86
2022-10-09T09:20:30.356Z,12.84
2022-10-09T09:21:30.313Z,12.83
2022-10-09T09:22:30.330Z,12.91
2022-10-09T09:23:30.292Z,12.99
2022-10-09T09:24:30.301Z,13.16
2022-10-09T09:25:30.293Z,13.17
2022-10-09T09:26:30.264Z,13.21
2022-10-09T09:27:30.241Z,13.23
2022-10-09T09:28:30.303Z,13.30
2022-10-09T09:29:30.261Z,13.49
2022-10-09T09:30:30.290Z,13.60
2022-10-09T09:31:30.279Z,13.67
2022-10-09T09:32:30.189Z,13.71
2022-10-09T09:33:33.866Z,13.82
2022-10-09T09:34:30.168Z,13.94
2022-10-09T09:35:30.146Z,13.94
2022-10-09T09:36:30.152Z,13.88
2022-10-09T09:37:30.131Z,13.98
2022-10-09T09:38:30.128Z,14.08
2022-10-09T09:40:38.574Z,14.18
2022-10-09T09:41:30.112Z,14.28
2022-10-09T09:42:30.078Z,14.28
2022-10-09T09:43:30.062Z,14.30
2022-10-09T09:44:30.054Z,14.45
2022-10-09T09:45:30.028Z,14.49
2022-10-09T09:46:30.128Z,14.66
2022-10-09T09:47:30.034Z,14.71
2022-10-09T09:48:30.012Z,14.74
2022-10-09T09:49:30.004Z,14.78
2022-10-09T09:50:48.177Z,14.79
2022-10-09T09:51:30.229Z,14.93
2022-10-09T09:52:29.967Z,14.97
2022-10-09T09:53:29.971Z,15.01
2022-10-09T09:54:29.957Z,15.01
2022-10-09T09:55:29.938Z,15.04
2022-10-09T09:56:29.933Z,15.07
2022-10-09T09:57:29.927Z,15.20
2022-10-09T09:58:29.934Z,15.35
2022-10-09T09:59:29.890Z,15.52
2022-10-09T10:00:29.920Z,15.68
2022-10-09T10:01:29.875Z,15.84
2022-10-09T10:02:29.929Z,15.83
2022-10-09T10:03:29.853Z,15.88
2022-10-09T10:04:29.845Z,16.00
2022-10-09T10:05:29.814Z,16.29
2022-10-09T10:06:29.823Z,16.70
2022-10-09T10:07:29.801Z,17.10
2022-10-09T10:08:29.810Z,17.47
2022-10-09T10:09:29.821Z,17.79
2022-10-09T10:10:29.794Z,17.91
2022-10-09T10:11:29.780Z,18.13
2022-10-09T10:12:29.744Z,18.52
2022-10-09T10:13:29.743Z,18.68
2022-10-09T10:14:29.768Z,19.13
2022-10-09T10:15:29.746Z,18.70
2022-10-09T10:16:29.759Z,18.89
2022-10-09T10:17:29.695Z,19.42
2022-10-09T10:18:29.695Z,19.89
2022-10-09T10:19:29.699Z,20.41
2022-10-09T10:20:29.664Z,20.68
2022-10-09T10:21:29.660Z,20.68
2022-10-09T10:22:29.669Z,20.29
2022-10-09T10:23:29.649Z,20.60
2022-10-09T10:24:29.654Z,20.75
2022-10-09T10:25:29.608Z,21.03
2022-10-09T10:26:29.606Z,21.05
2022-10-09T10:27:29.594Z,20.77
2022-10-09T10:28:29.634Z,21.00
2022-10-09T10:29:29.576Z,21.45
2022-10-09T10:30:29.570Z,21.77
2022-10-09T10:31:29.577Z,22.01
2022-10-09T10:32:29.551Z,22.22
2022-10-09T10:33:29.526Z,22.18
2022-10-09T10:34:29.541Z,22.27
2022-10-09T10:35:29.516Z,21.81
2022-10-09T10:36:29.491Z,21.77
2022-10-09T10:37:29.482Z,22.33
2022-10-09T10:38:29.487Z,22.77
2022-10-09T10:39:29.499Z,22.81
2022-10-09T10:40:29.479Z,22.71
2022-10-09T10:41:29.439Z,22.73
2022-10-09T10:42:29.442Z,22.80
2022-10-09T10:43:29.427Z,22.68
2022-10-09T10:44:29.409Z,22.68
2022-10-09T10:45:29.385Z,22.56
2022-10-09T10:46:29.436Z,22.37
2022-10-09T10:47:29.394Z,22.46
2022-10-09T10:48:29.375Z,22.23
2022-10-09T10:49:33.497Z,22.30
2022-10-09T10:50:29.360Z,22.41
2022-10-09T10:51:29.342Z,22.16
2022-10-09T10:52:29.354Z,22.15
2022-10-09T10:53:29.322Z,22.33
2022-10-09T10:54:29.324Z,22.28
2022-10-09T10:55:29.297Z,22.71
2022-10-09T10:56:29.318Z,22.89
2022-10-09T10:57:29.304Z,22.68
2022-10-09T10:58:29.278Z,22.62
2022-10-09T10:59:29.288Z,22.53
2022-10-09T11:00:29.252Z,22.03
2022-10-09T11:01:29.345Z,22.25
2022-10-09T11:02:32.473Z,22.15
2022-10-09T11:03:29.275Z,22.22
2022-10-09T11:04:29.212Z,22.30
2022-10-09T11:05:29.191Z,22.62
2022-10-09T11:06:29.203Z,22.70
2022-10-09T11:07:29.186Z,22.56
2022-10-09T11:08:29.176Z,22.33
2022-10-09T11:09:29.183Z,21.96
2022-10-09T11:10:29.160Z,21.56
2022-10-09T11:11:29.208Z,21.50
2022-10-09T11:12:47.259Z,21.10
2022-10-09T11:13:29.123Z,20.60
2022-10-09T11:14:29.144Z,19.82
2022-10-09T11:15:29.139Z,19.27
2022-10-09T11:16:29.122Z,18.94
2022-10-09T11:17:29.079Z,19.00
2022-10-09T11:18:29.098Z,18.91
2022-10-09T11:19:29.095Z,18.79
2022-10-09T11:20:29.057Z,18.57
2022-10-09T11:21:29.037Z,18.33
2022-10-09T11:22:29.044Z,18.20
2022-10-09T11:23:29.019Z,18.23
2022-10-09T11:24:29.042Z,18.28
2022-10-09T11:25:29.000Z,18.21
2022-10-09T11:26:28.997Z,18.13
2022-10-09T11:27:29.011Z,18.05
2022-10-09T11:28:29.084Z,17.93
2022-10-09T11:29:28.955Z,17.90
2022-10-09T11:30:28.979Z,17.87
2022-10-09T11:31:29.040Z,17.93
2022-10-09T11:32:29.030Z,17.94
2022-10-09T11:33:28.916Z,18.20
2022-10-09T11:34:28.916Z,18.31
2022-10-09T11:35:29.013Z,18.34
2022-10-09T11:36:28.902Z,18.33
2022-10-09T11:37:28.881Z,18.41
2022-10-09T11:38:28.880Z,18.41
2022-10-09T11:39:28.858Z,18.48
2022-10-09T11:40:28.855Z,18.39
2022-10-09T11:41:28.870Z,18.34
2022-10-09T11:42:28.844Z,18.31
2022-10-09T11:43:28.826Z,18.27
2022-10-09T11:44:28.816Z,18.57
2022-10-09T11:45:28.843Z,18.81
2022-10-09T11:46:28.803Z,19.17
2022-10-09T11:47:28.774Z,19.16
2022-10-09T11:48:28.778Z,19.20
2022-10-09T11:49:28.756Z,18.94
2022-10-09T11:50:28.816Z,18.81
2022-10-09T11:51:28.743Z,18.70
2022-10-09T11:52:28.720Z,18.82
2022-10-09T11:53:28.705Z,18.96
2022-10-09T11:54:28.717Z,18.97
2022-10-09T11:55:28.692Z,19.05
2022-10-09T11:56:28.709Z,19.27
2022-10-09T11:57:28.676Z,19.19
2022-10-09T11:58:28.684Z,19.30
2022-10-09T11:59:28.658Z,19.38
2022-10-09T12:00:28.673Z,19.19
2022-10-09T12:01:28.691Z,19.08
2022-10-09T12:02:28.739Z,18.96
2022-10-09T12:03:28.695Z,18.86
2022-10-09T12:04:43.538Z,18.70
2022-10-09T12:05:28.606Z,18.60
2022-10-09T12:06:28.612Z,18.70
2022-10-09T12:07:28.653Z,18.86
2022-10-09T12:08:28.578Z,19.15
2022-10-09T12:09:28.562Z,19.24
2022-10-09T12:10:28.564Z,19.17
2022-10-09T12:11:28.541Z,19.23
2022-10-09T12:12:28.555Z,19.30
2022-10-09T12:13:28.502Z,19.30
2022-10-09T12:14:28.507Z,18.98
2022-10-09T12:15:28.498Z,18.91
2022-10-09T12:16:28.559Z,18.93
2022-10-09T12:17:28.481Z,19.01
2022-10-09T12:18:28.467Z,18.98
2022-10-09T12:19:28.447Z,19.08
2022-10-09T12:20:28.435Z,19.00
2022-10-09T12:21:28.423Z,18.93
2022-10-09T12:22:28.444Z,19.05
2022-10-09T12:23:28.879Z,19.39
2022-10-09T12:24:28.400Z,20.14
2022-10-09T12:25:28.376Z,20.74
2022-10-09T12:26:28.379Z,21.30
2022-10-09T12:27:28.360Z,21.65
2022-10-09T12:28:28.409Z,21.71
2022-10-09T12:29:28.342Z,22.01
2022-10-09T12:30:28.402Z,22.38
2022-10-09T12:31:28.383Z,23.15
2022-10-09T12:32:28.339Z,23.69
2022-10-09T12:33:28.325Z,23.91
2022-10-09T12:34:28.291Z,24.29
2022-10-09T12:35:28.271Z,24.93
2022-10-09T12:36:28.267Z,25.31
2022-10-09T12:37:28.240Z,25.22
2022-10-09T12:38:28.264Z,25.36
2022-10-09T12:39:28.343Z,25.53
2022-10-09T12:40:28.257Z,25.61
2022-10-09T12:41:28.205Z,25.31
2022-10-09T12:42:28.248Z,24.89
2022-10-09T12:43:28.196Z,24.48
2022-10-09T12:44:28.191Z,24.89
2022-10-09T12:45:28.202Z,25.46
2022-10-09T12:46:28.196Z,25.77
2022-10-09T12:47:28.155Z,25.71
2022-10-09T12:48:28.161Z,25.52
2022-10-09T12:49:28.128Z,25.38
2022-10-09T12:50:28.153Z,25.14
2022-10-09T12:51:28.127Z,25.01
2022-10-09T12:52:28.108Z,25.34
2022-10-09T12:53:28.094Z,25.30
2022-10-09T12:54:28.177Z,25.53
2022-10-09T12:55:28.114Z,25.48
2022-10-09T12:56:28.091Z,25.53
2022-10-09T12:57:28.171Z,26.08
2022-10-09T12:58:28.051Z,26.57
2022-10-09T12:59:28.116Z,26.82
2022-10-09T13:00:28.030Z,26.79
2022-10-09T13:01:28.144Z,26.79
2022-10-09T13:02:28.162Z,26.65
2022-10-09T13:03:28.004Z,26.24
2022-10-09T13:04:28.008Z,25.58
2022-10-09T13:05:27.983Z,25.77
2022-10-09T13:06:28.000Z,25.78
2022-10-09T13:07:27.969Z,25.19
2022-10-09T13:08:27.954Z,24.81
2022-10-09T13:09:27.961Z,24.59